UWKD

Details ICAO UWKD (KZN)
Name KAZAN
Region Russia
Timezone Europe/Moscow (UTC+3.0)
Plans Departing 160
Arriving 152
Stats Elevation 411 ft / 125 m (AMSL)
Location 55.606544° 49.279689°
Runways 2
Magnetic Variation 13.343° E
Sunrise 2018-06-24 00:01:03 UTC / 2018-06-24 03:01:03 Local
Sunset 2018-06-24 17:31:52 UTC / 2018-06-24 20:31:52 Local
Advertisement - Login to hide

Runways

ID Width Length Bearing (true) Bearing (mag) Surface Threshold Offset Overrun Length
11L 144 ft / 44 m 12,189 ft / 3,715 m 126.46° 113.12° Concrete 837 ft / 255 m 0 ft / 0 m
11R 148 ft / 45 m 8,174 ft / 2,492 m 124.48° 111.14° Concrete 0 ft / 0 m 180 ft / 55 m
29L 148 ft / 45 m 8,174 ft / 2,492 m 304.51° 291.17° Concrete 0 ft / 0 m 180 ft / 55 m
29R 144 ft / 44 m 12,189 ft / 3,715 m 306.50° 293.16° Concrete 0 ft / 0 m 160 ft / 49 m

Map

Weather


0- 5 10 15 20 25 30 35+ Temperature / ° C

Clouds and Precipitation
Forecast for 2018-06-24 00:00 UTC. Updated 4 hours ago

Ground ~20,000 ft ~40,000 ft Winds

METAR

UWKD 240130Z 00000MPS CAVOK 18/15 Q1015 R29/CLRD70 NOSIG RMK QFE750/1000

TAF

TAF UWKD 232257Z 2400/2424 18003MPS 9999 SCT030 TX31/2412Z TN17/2401Z TEMPO 2406/2415 22005MPS BECMG 2418/2421 16003MPS

Frequencies

Recorded 126.80 MHz ATIS
Tower 120.30 MHz TWR
Approach 129.00 MHz RADAR
Ground 121.70 MHz TAXIING
Approach 119.40 MHz RADAR
Approach 124.00 MHz RADAR
Warning: Do not use this data for real-world aviation or navigation. No guarantee of current accuracy is given.